createdAt,value
2023-05-13T09:05:29.099Z,21.39
2023-05-13T09:08:34.510Z,21.44
2023-05-13T09:11:43.236Z,21.50
2023-05-13T09:14:48.178Z,21.60
2023-05-13T09:17:55.663Z,21.79
2023-05-13T09:21:03.038Z,21.98
2023-05-13T09:24:31.382Z,22.21
2023-05-13T09:27:44.847Z,22.50
2023-05-13T09:30:53.198Z,22.73
2023-05-13T09:34:08.299Z,22.86
2023-05-13T09:37:21.737Z,22.98
2023-05-13T09:40:28.833Z,23.05
2023-05-13T09:43:37.816Z,23.13
2023-05-13T09:46:42.886Z,23.21
2023-05-13T09:49:50.032Z,23.41
2023-05-13T09:52:58.111Z,23.55
2023-05-13T09:56:06.878Z,23.71
2023-05-13T09:59:12.332Z,23.71
2023-05-13T10:02:22.924Z,23.69
2023-05-13T10:05:28.498Z,23.80
2023-05-13T10:08:35.210Z,24.05
2023-05-13T10:11:40.624Z,24.23
2023-05-13T10:14:46.288Z,24.28
2023-05-13T10:17:51.910Z,24.39
2023-05-13T10:21:01.037Z,24.48
2023-05-13T10:24:05.953Z,24.53
2023-05-13T10:27:12.253Z,24.56
2023-05-13T10:30:18.046Z,24.62
2023-05-13T10:33:23.826Z,24.82
2023-05-13T10:37:02.112Z,25.04
2023-05-13T10:40:50.517Z,25.14
2023-05-13T10:43:49.644Z,25.46
2023-05-13T10:46:58.467Z,25.70
2023-05-13T10:50:11.984Z,25.66
2023-05-13T10:53:19.492Z,25.62
2023-05-13T10:56:25.477Z,25.61
2023-05-13T10:59:31.055Z,25.55
2023-05-13T11:02:40.657Z,25.37
2023-05-13T11:05:47.144Z,25.27
2023-05-13T11:08:58.361Z,25.18
2023-05-13T11:12:02.802Z,25.03
2023-05-13T11:15:13.290Z,25.05
2023-05-13T11:18:21.472Z,25.32
2023-05-13T11:21:27.785Z,25.72
2023-05-13T11:24:33.920Z,25.98
2023-05-13T11:27:41.652Z,26.20
2023-05-13T11:30:47.669Z,26.23
2023-05-13T11:34:32.097Z,26.25
2023-05-13T11:37:38.465Z,26.25
2023-05-13T11:40:48.109Z,26.19
2023-05-13T11:43:52.961Z,26.09
2023-05-13T11:47:13.139Z,26.04
2023-05-13T11:50:33.958Z,26.13
2023-05-13T11:53:39.576Z,26.24
2023-05-13T11:56:45.169Z,26.36
2023-05-13T11:59:51.510Z,26.51
2023-05-13T12:02:57.260Z,26.68
2023-05-13T12:06:02.590Z,26.82
2023-05-13T12:09:09.688Z,26.96
2023-05-13T12:12:16.894Z,26.96
2023-05-13T12:15:32.839Z,26.97
2023-05-13T12:18:40.358Z,26.96
2023-05-13T12:21:50.699Z,26.85
2023-05-13T12:24:58.514Z,26.75
2023-05-13T12:28:08.115Z,26.79
2023-05-13T12:31:16.857Z,26.89
2023-05-13T12:34:24.382Z,26.98
2023-05-13T12:37:30.512Z,27.17
2023-05-13T12:40:36.146Z,27.23
2023-05-13T12:43:41.156Z,27.17
2023-05-13T12:46:47.782Z,27.20
2023-05-13T12:50:13.462Z,27.29
2023-05-13T12:53:19.809Z,27.28
2023-05-13T12:56:24.561Z,27.23
2023-05-13T12:59:30.746Z,27.10
2023-05-13T13:02:36.213Z,26.79
2023-05-13T13:05:41.798Z,26.51
2023-05-13T13:08:47.691Z,26.33
2023-05-13T13:11:54.764Z,26.23
2023-05-13T13:15:00.796Z,26.09
2023-05-13T13:18:05.764Z,25.96
2023-05-13T13:21:12.515Z,25.87
2023-05-13T13:24:17.905Z,25.81
2023-05-13T13:27:25.519Z,25.80
2023-05-13T13:30:32.209Z,25.84
2023-05-13T13:33:37.551Z,26.11
2023-05-13T13:36:43.116Z,26.28
2023-05-13T13:39:48.048Z,26.53
2023-05-13T13:42:55.271Z,26.48
2023-05-13T13:46:01.783Z,26.40
2023-05-13T13:49:22.824Z,26.54
2023-05-13T13:52:17.547Z,26.94
2023-05-13T13:55:22.758Z,27.17
2023-05-13T13:58:27.736Z,27.48
2023-05-13T14:01:32.452Z,27.65
2023-05-13T14:04:39.790Z,27.78
2023-05-13T14:07:45.731Z,27.67
2023-05-13T14:10:50.640Z,27.37
2023-05-13T14:13:55.578Z,27.15
2023-05-13T14:17:00.569Z,26.97
2023-05-13T14:20:05.569Z,26.83
2023-05-13T14:23:10.914Z,26.63
2023-05-13T14:26:20.596Z,26.36
2023-05-13T14:29:27.327Z,26.08
2023-05-13T14:32:32.576Z,25.78
2023-05-13T14:35:40.154Z,25.50
2023-05-13T14:38:46.277Z,25.25
2023-05-13T14:41:52.842Z,25.03
2023-05-13T14:44:59.882Z,24.85
2023-05-13T14:48:06.472Z,24.67
2023-05-13T14:51:13.751Z,24.40
2023-05-13T14:54:20.989Z,24.24
2023-05-13T14:57:27.942Z,24.02
2023-05-13T15:00:34.801Z,23.77
2023-05-13T15:03:35.343Z,23.50
2023-05-13T15:06:42.554Z,23.21
2023-05-13T15:09:49.421Z,23.02
2023-05-13T15:12:57.232Z,22.85
2023-05-13T15:16:02.099Z,22.67
2023-05-13T15:19:08.031Z,22.53
2023-05-13T15:22:14.183Z,22.46
2023-05-13T15:25:20.997Z,22.41
2023-05-13T15:28:27.423Z,22.39
2023-05-13T15:31:34.014Z,22.35
2023-05-13T15:34:39.882Z,22.32
2023-05-13T15:37:45.781Z,22.28
2023-05-13T15:40:54.058Z,22.24
2023-05-13T15:44:01.231Z,22.17
2023-05-13T15:47:07.327Z,22.14
2023-05-13T15:50:14.564Z,22.09
2023-05-13T15:53:21.578Z,22.00
2023-05-13T15:56:28.122Z,22.07
2023-05-13T15:59:33.651Z,22.29
2023-05-13T16:02:45.837Z,22.16
2023-05-13T16:05:51.355Z,21.86
2023-05-13T16:08:58.209Z,21.88
2023-05-13T16:12:04.534Z,22.11
2023-05-13T16:15:09.748Z,21.97
2023-05-13T16:18:16.292Z,21.78
2023-05-13T16:21:22.267Z,21.62
2023-05-13T16:24:28.798Z,21.49
2023-05-13T16:27:37.029Z,21.37
2023-05-13T16:30:43.746Z,21.24
2023-05-13T16:33:50.864Z,21.13
2023-05-13T16:36:59.465Z,21.02
2023-05-13T16:40:07.887Z,20.92
2023-05-13T16:43:14.914Z,20.81
2023-05-13T16:46:20.973Z,20.71
2023-05-13T16:49:27.570Z,20.63
2023-05-13T16:52:34.180Z,20.54
2023-05-13T16:55:33.765Z,20.46
2023-05-13T16:58:40.949Z,20.40
2023-05-13T17:01:46.866Z,20.31
2023-05-13T17:04:53.352Z,20.24
2023-05-13T17:07:58.931Z,20.17
2023-05-13T17:11:05.016Z,20.11
2023-05-13T17:14:11.391Z,20.00
2023-05-13T17:17:17.409Z,19.90
2023-05-13T17:20:27.581Z,19.81
2023-05-13T17:23:32.843Z,19.69
2023-05-13T17:26:39.185Z,19.59
2023-05-13T17:29:45.417Z,19.48
2023-05-13T17:32:51.158Z,19.38
2023-05-13T17:35:57.482Z,19.27
2023-05-13T17:39:04.864Z,19.15
2023-05-13T17:42:10.967Z,19.04
2023-05-13T17:45:18.011Z,18.94
2023-05-13T17:48:23.903Z,18.83
2023-05-13T17:51:30.786Z,18.72
2023-05-13T17:54:36.406Z,18.61
2023-05-13T17:57:42.916Z,18.51
2023-05-13T18:00:49.097Z,18.36
2023-05-13T18:03:56.450Z,18.24
2023-05-13T18:07:03.281Z,18.17
2023-05-13T18:10:09.063Z,18.10
2023-05-13T18:13:14.625Z,18.01
2023-05-13T18:16:21.030Z,17.92
2023-05-13T18:19:27.591Z,17.80
2023-05-13T18:22:34.593Z,17.69
2023-05-13T18:25:52.377Z,17.56
2023-05-13T18:28:48.852Z,17.41
2023-05-13T18:31:54.610Z,17.29
2023-05-13T18:35:01.344Z,17.16
2023-05-13T18:38:07.600Z,17.00
2023-05-13T18:41:13.322Z,16.87
2023-05-13T18:44:19.514Z,16.76
2023-05-13T18:47:25.572Z,16.66
2023-05-13T18:50:26.261Z,16.56
2023-05-13T18:53:32.788Z,16.44
2023-05-13T18:56:39.166Z,16.37
2023-05-13T18:59:46.269Z,16.31
2023-05-13T19:02:52.981Z,16.26
2023-05-13T19:06:00.383Z,16.22
2023-05-13T19:09:08.075Z,16.17
2023-05-13T19:12:13.032Z,16.13
2023-05-13T19:15:20.345Z,16.07
2023-05-13T19:18:25.156Z,16.00
2023-05-13T19:21:30.790Z,15.96
2023-05-13T19:24:37.100Z,15.93
2023-05-13T19:27:43.013Z,15.92
2023-05-13T19:30:48.747Z,15.90
2023-05-13T19:33:56.386Z,15.87
2023-05-13T19:37:02.587Z,15.85
2023-05-13T19:40:10.706Z,15.84
2023-05-13T19:43:15.495Z,15.83
2023-05-13T19:46:20.871Z,15.82
2023-05-13T19:49:26.158Z,15.81
2023-05-13T19:52:32.533Z,15.79
2023-05-13T19:55:39.317Z,15.76
2023-05-13T19:58:46.232Z,15.70
2023-05-13T20:01:53.434Z,15.64
2023-05-13T20:05:00.352Z,15.61
2023-05-13T20:08:09.294Z,15.57
2023-05-13T20:11:14.716Z,15.53
2023-05-13T20:14:21.527Z,15.49
2023-05-13T20:17:31.591Z,15.42
2023-05-13T20:20:38.727Z,15.34
2023-05-13T20:23:46.236Z,15.25
2023-05-13T20:26:50.771Z,15.17
2023-05-13T20:30:00.969Z,15.07
2023-05-13T20:33:08.036Z,14.96
2023-05-13T20:36:15.464Z,14.85
2023-05-13T20:39:23.292Z,14.74
2023-05-13T20:42:31.098Z,14.67
2023-05-13T20:45:37.694Z,14.55
2023-05-13T20:48:42.536Z,14.43
2023-05-13T20:51:50.019Z,14.37
2023-05-13T20:54:56.105Z,14.33
2023-05-13T20:58:03.055Z,14.28
2023-05-13T21:01:08.519Z,14.23
2023-05-13T21:04:17.878Z,14.19
2023-05-13T21:07:24.131Z,14.16
2023-05-13T21:10:31.388Z,14.12
2023-05-13T21:13:37.739Z,14.06
2023-05-13T21:16:43.533Z,13.97
2023-05-13T21:19:49.660Z,13.93
2023-05-13T21:22:55.404Z,13.88
2023-05-13T21:26:01.418Z,13.81
2023-05-13T21:29:07.458Z,13.76
2023-05-13T21:32:12.878Z,13.69
2023-05-13T21:35:21.269Z,13.62
2023-05-13T21:38:27.226Z,13.58
2023-05-13T21:41:34.282Z,13.54
2023-05-13T21:44:39.115Z,13.51
2023-05-13T21:47:44.132Z,13.47
2023-05-13T21:50:49.929Z,13.46
2023-05-13T21:53:56.479Z,13.44
2023-05-13T21:57:03.026Z,13.43
2023-05-13T22:00:11.679Z,13.42
2023-05-13T22:03:18.226Z,13.42
2023-05-13T22:06:18.888Z,13.42
2023-05-13T22:09:23.686Z,13.41
2023-05-13T22:12:30.634Z,13.40
2023-05-13T22:15:36.280Z,13.37
2023-05-13T22:18:42.877Z,13.36
2023-05-13T22:21:48.480Z,13.36
2023-05-13T22:24:54.310Z,13.38
2023-05-13T22:28:00.794Z,13.37
2023-05-13T22:31:08.019Z,13.36
2023-05-13T22:34:13.611Z,13.36
2023-05-13T22:37:19.691Z,13.33
2023-05-13T22:40:25.849Z,13.29
2023-05-13T22:43:31.212Z,13.23
2023-05-13T22:46:37.676Z,13.16
2023-05-13T22:49:43.668Z,13.09
2023-05-13T22:52:49.701Z,13.01
2023-05-13T22:55:55.669Z,12.93
2023-05-13T22:59:02.252Z,12.87
2023-05-13T23:02:07.897Z,12.82
2023-05-13T23:05:14.205Z,12.77
2023-05-13T23:08:20.188Z,12.74
2023-05-13T23:11:26.940Z,12.69
2023-05-13T23:14:35.978Z,12.67
2023-05-13T23:17:40.862Z,12.65
2023-05-13T23:20:46.044Z,12.62
2023-05-13T23:23:51.316Z,12.58
2023-05-13T23:26:57.774Z,12.52
2023-05-13T23:30:03.213Z,12.49
2023-05-13T23:33:09.354Z,12.46
2023-05-13T23:36:15.640Z,12.41
2023-05-13T23:39:21.584Z,12.36
2023-05-13T23:42:29.000Z,12.34
2023-05-13T23:45:34.886Z,12.31
2023-05-13T23:48:42.236Z,12.23
2023-05-13T23:51:47.892Z,12.16
2023-05-13T23:54:54.056Z,12.11
2023-05-13T23:58:01.523Z,12.05
